createdAt,value
2022-12-12T00:00:34.857Z,91.16
2022-12-12T00:01:33.046Z,90.95
2022-12-12T00:02:29.721Z,91.27
2022-12-12T00:03:26.470Z,90.78
2022-12-12T00:04:23.145Z,91.36
2022-12-12T00:05:19.911Z,91.92
2022-12-12T00:06:16.625Z,91.67
2022-12-12T00:07:13.202Z,91.47
2022-12-12T00:08:09.802Z,91.81
2022-12-12T00:09:06.510Z,91.90
2022-12-12T00:10:04.639Z,92.31
2022-12-12T00:11:01.405Z,92.10
2022-12-12T00:11:58.128Z,92.11
2022-12-12T00:12:54.956Z,92.24
2022-12-12T00:13:53.086Z,91.80
2022-12-12T00:14:49.782Z,91.96
2022-12-12T00:15:46.436Z,91.99
2022-12-12T00:16:43.059Z,91.91
2022-12-12T00:17:39.664Z,91.93
2022-12-12T00:18:37.077Z,91.71
2022-12-12T00:19:33.724Z,91.41
2022-12-12T00:20:30.441Z,91.75
2022-12-12T00:21:29.272Z,91.85
2022-12-12T00:22:25.919Z,91.89
2022-12-12T00:23:24.450Z,91.13
2022-12-12T00:24:21.077Z,91.40
2022-12-12T00:25:17.726Z,90.62
2022-12-12T00:26:23.600Z,91.17
2022-12-12T00:27:20.235Z,91.27
2022-12-12T00:28:16.838Z,91.81
2022-12-12T00:29:13.597Z,91.33
2022-12-12T00:30:10.526Z,90.94
2022-12-12T00:31:07.192Z,91.42
2022-12-12T00:32:04.021Z,91.06
2022-12-12T00:33:00.587Z,90.47
2022-12-12T00:33:57.335Z,90.84
2022-12-12T00:34:53.964Z,90.07
2022-12-12T00:35:52.890Z,89.92
2022-12-12T00:36:51.634Z,90.80
2022-12-12T00:37:48.273Z,91.39
2022-12-12T00:38:44.876Z,91.74
2022-12-12T00:39:41.904Z,92.47
2022-12-12T00:40:38.513Z,92.20
2022-12-12T00:41:37.275Z,92.62
2022-12-12T00:42:33.877Z,92.66
2022-12-12T00:43:30.518Z,92.24
2022-12-12T00:44:27.251Z,93.23
2022-12-12T00:45:23.888Z,92.82
2022-12-12T00:46:24.720Z,92.58
2022-12-12T00:47:21.456Z,92.44
2022-12-12T00:48:18.339Z,92.21
2022-12-12T00:49:14.977Z,91.90
2022-12-12T00:50:11.612Z,92.41
2022-12-12T00:51:10.612Z,91.83
2022-12-12T00:52:07.231Z,92.55
2022-12-12T00:53:03.949Z,92.34
2022-12-12T00:54:00.775Z,93.08
2022-12-12T00:54:57.890Z,93.54
2022-12-12T00:55:56.665Z,93.90
2022-12-12T00:56:53.218Z,94.37
2022-12-12T00:57:49.870Z,93.86
2022-12-12T00:58:46.935Z,94.25
2022-12-12T00:59:43.501Z,94.05
2022-12-12T01:00:42.716Z,93.94
2022-12-12T01:01:39.346Z,93.85
2022-12-12T01:02:36.036Z,94.27
2022-12-12T01:03:35.126Z,94.55
2022-12-12T01:04:31.723Z,94.56
2022-12-12T01:05:28.785Z,94.34
2022-12-12T01:06:26.407Z,94.54
2022-12-12T01:07:23.579Z,94.76
2022-12-12T01:08:20.200Z,94.90
2022-12-12T01:09:16.807Z,95.20
2022-12-12T01:10:13.583Z,95.11
2022-12-12T01:11:11.932Z,95.10
2022-12-12T01:12:08.749Z,94.83
2022-12-12T01:13:05.758Z,95.17
2022-12-12T01:14:02.581Z,94.95
2022-12-12T01:14:59.188Z,95.39
2022-12-12T01:15:56.200Z,95.85
2022-12-12T01:16:52.874Z,95.67
2022-12-12T01:17:49.432Z,95.69
2022-12-12T01:18:46.514Z,95.94
2022-12-12T01:19:43.079Z,95.53
2022-12-12T01:20:41.692Z,94.81
2022-12-12T01:21:38.274Z,94.41
2022-12-12T01:22:37.230Z,94.56
2022-12-12T01:23:33.801Z,94.44
2022-12-12T01:24:30.498Z,94.70
2022-12-12T01:25:27.084Z,94.65
2022-12-12T01:26:24.852Z,94.66
2022-12-12T01:27:21.421Z,94.69
2022-12-12T01:28:17.971Z,94.63
2022-12-12T01:29:14.573Z,94.68
2022-12-12T01:30:13.772Z,94.24
2022-12-12T01:31:11.848Z,93.96
2022-12-12T01:32:08.612Z,94.62
2022-12-12T01:33:05.201Z,94.64
2022-12-12T01:34:01.879Z,95.09
2022-12-12T01:34:58.531Z,95.02
2022-12-12T01:35:55.238Z,94.80
2022-12-12T01:36:52.632Z,95.11
2022-12-12T01:37:49.727Z,94.68
2022-12-12T01:38:48.012Z,95.34
2022-12-12T01:39:44.566Z,94.56
2022-12-12T01:40:41.184Z,94.72
2022-12-12T01:41:37.893Z,94.56
2022-12-12T01:42:34.914Z,94.73
2022-12-12T01:43:31.535Z,94.49
2022-12-12T01:44:47.688Z,94.72
2022-12-12T01:45:59.661Z,94.41
2022-12-12T01:46:56.278Z,94.18
2022-12-12T01:47:52.927Z,93.89
2022-12-12T01:48:54.804Z,93.90
2022-12-12T01:49:54.736Z,93.69
2022-12-12T01:50:51.852Z,93.45
2022-12-12T01:51:52.343Z,93.79
2022-12-12T01:52:49.823Z,93.86
2022-12-12T01:53:48.389Z,93.88
2022-12-12T01:54:49.447Z,93.22
2022-12-12T01:55:48.059Z,93.39
2022-12-12T01:56:47.038Z,92.77
2022-12-12T01:57:47.268Z,92.78
2022-12-12T01:58:47.457Z,92.81
2022-12-12T01:59:46.198Z,92.52
2022-12-12T02:00:43.144Z,92.88
2022-12-12T02:01:40.337Z,92.34
2022-12-12T02:02:39.404Z,91.95
2022-12-12T02:03:37.042Z,91.83
2022-12-12T02:04:34.007Z,92.32
2022-12-12T02:05:37.598Z,92.78
2022-12-12T02:06:34.367Z,92.89
2022-12-12T02:07:31.143Z,93.07
2022-12-12T02:08:28.414Z,93.22
2022-12-12T02:09:26.001Z,92.51
2022-12-12T02:10:22.673Z,92.81
2022-12-12T02:11:19.295Z,93.18
2022-12-12T02:12:15.948Z,92.85
2022-12-12T02:13:17.028Z,93.41
2022-12-12T02:14:34.616Z,93.30
2022-12-12T02:15:45.778Z,93.19
2022-12-12T02:16:51.487Z,92.85
2022-12-12T02:18:09.843Z,93.52
2022-12-12T02:19:33.746Z,93.68
2022-12-12T02:21:25.059Z,92.86
2022-12-12T02:22:41.507Z,93.01
2022-12-12T02:23:53.402Z,92.90
2022-12-12T02:25:11.950Z,92.93
2022-12-12T02:26:15.556Z,93.51
2022-12-12T02:27:27.394Z,93.74
2022-12-12T02:29:00.349Z,93.61
2022-12-12T02:29:59.586Z,93.21
2022-12-12T02:31:14.835Z,93.46
2022-12-12T02:32:25.331Z,93.55
2022-12-12T02:33:34.238Z,93.35
2022-12-12T02:34:45.205Z,93.89
2022-12-12T02:36:05.369Z,93.43
2022-12-12T02:37:12.858Z,93.67
2022-12-12T02:38:25.854Z,93.11
2022-12-12T02:39:54.614Z,93.44
2022-12-12T02:41:00.006Z,92.90
2022-12-12T02:42:10.570Z,93.54
2022-12-12T02:43:13.459Z,93.54
2022-12-12T02:44:38.460Z,94.58
2022-12-12T02:45:51.270Z,94.78
2022-12-12T02:47:06.333Z,94.72
2022-12-12T02:48:33.843Z,95.14
2022-12-12T02:49:41.089Z,95.64
2022-12-12T02:50:40.083Z,95.33
2022-12-12T02:51:38.414Z,95.64
2022-12-12T02:52:36.266Z,95.39
2022-12-12T02:53:33.110Z,95.53
2022-12-12T02:54:29.896Z,95.83
2022-12-12T02:55:26.914Z,95.47
2022-12-12T02:56:41.909Z,95.52
2022-12-12T02:57:41.675Z,95.89
2022-12-12T02:58:38.738Z,95.97
2022-12-12T02:59:41.894Z,95.87
2022-12-12T03:00:56.536Z,96.12
2022-12-12T03:02:22.577Z,96.18
2022-12-12T03:03:53.882Z,96.95
2022-12-12T03:05:32.749Z,96.92
2022-12-12T03:07:15.633Z,97.04
2022-12-12T03:08:42.186Z,96.79
2022-12-12T03:10:04.606Z,96.31
2022-12-12T03:11:11.029Z,95.80
2022-12-12T03:12:17.394Z,95.83
2022-12-12T03:13:35.621Z,95.26
2022-12-12T03:14:44.123Z,94.79
2022-12-12T03:16:12.319Z,95.40
2022-12-12T03:17:18.154Z,95.64
2022-12-12T03:18:26.854Z,95.47
2022-12-12T03:19:28.659Z,95.84
2022-12-12T03:20:43.187Z,96.33
2022-12-12T03:21:59.599Z,96.48
2022-12-12T03:23:02.797Z,96.23
2022-12-12T03:24:05.700Z,96.45
2022-12-12T03:25:24.556Z,96.60
2022-12-12T03:26:32.019Z,96.98
2022-12-12T03:27:48.351Z,96.98
2022-12-12T03:29:08.125Z,97.18
2022-12-12T03:30:11.884Z,97.36
2022-12-12T03:31:12.057Z,97.56
2022-12-12T03:32:16.563Z,97.61
2022-12-12T03:33:32.693Z,97.64
2022-12-12T03:34:38.770Z,97.91
2022-12-12T03:35:41.795Z,97.95
2022-12-12T03:36:49.023Z,98.04
2022-12-12T03:37:58.756Z,97.99
2022-12-12T03:39:06.145Z,97.78
2022-12-12T03:40:14.157Z,97.52
2022-12-12T03:41:22.180Z,96.89
2022-12-12T03:42:18.707Z,96.89
2022-12-12T03:43:20.199Z,96.67
2022-12-12T03:44:29.338Z,96.58
2022-12-12T03:45:35.255Z,96.50
2022-12-12T03:46:39.619Z,97.21
2022-12-12T03:47:43.727Z,96.80
2022-12-12T03:48:49.351Z,97.31
2022-12-12T03:49:58.381Z,97.12
2022-12-12T03:51:00.680Z,97.05
2022-12-12T03:52:11.785Z,96.97
2022-12-12T03:53:22.142Z,96.85
2022-12-12T03:54:25.896Z,96.59
2022-12-12T03:55:45.360Z,96.66
2022-12-12T03:56:51.061Z,96.94
2022-12-12T03:57:56.875Z,96.72
2022-12-12T03:59:01.657Z,97.03
2022-12-12T04:00:05.900Z,96.97
2022-12-12T04:01:07.954Z,96.79
2022-12-12T04:02:16.828Z,96.70
2022-12-12T04:03:25.163Z,96.92
2022-12-12T04:04:29.436Z,96.37
2022-12-12T04:05:30.851Z,96.76
2022-12-12T04:06:39.035Z,96.39
2022-12-12T04:07:43.995Z,96.24
2022-12-12T04:09:00.680Z,96.15
2022-12-12T04:10:15.910Z,95.99
2022-12-12T04:11:39.152Z,95.71
2022-12-12T04:13:03.536Z,96.12
2022-12-12T04:14:32.861Z,96.24
2022-12-12T04:15:53.162Z,95.82
2022-12-12T04:17:00.660Z,96.35
2022-12-12T04:18:33.502Z,96.59
2022-12-12T04:20:18.277Z,96.50
2022-12-12T04:21:58.996Z,96.38
2022-12-12T04:23:16.448Z,95.78
2022-12-12T04:24:20.262Z,96.39
2022-12-12T04:26:04.920Z,96.35
2022-12-12T04:27:07.246Z,96.28
2022-12-12T04:28:07.558Z,96.23
2022-12-12T04:29:19.426Z,96.46
2022-12-12T04:30:16.845Z,96.40
2022-12-12T04:31:14.009Z,96.03
2022-12-12T04:32:42.546Z,95.98
2022-12-12T04:33:48.704Z,96.17
2022-12-12T04:35:00.138Z,95.54
2022-12-12T04:36:00.195Z,95.63
2022-12-12T04:36:56.925Z,95.42
2022-12-12T04:38:00.764Z,95.72
2022-12-12T04:39:00.156Z,95.95
2022-12-12T04:40:00.024Z,96.14
2022-12-12T04:40:59.481Z,95.91
2022-12-12T04:41:57.548Z,95.66
2022-12-12T04:42:59.360Z,95.71
2022-12-12T04:43:56.981Z,95.84
2022-12-12T04:44:59.297Z,95.61
2022-12-12T04:46:09.752Z,95.49
2022-12-12T04:47:09.095Z,95.84
2022-12-12T04:48:09.417Z,95.24
2022-12-12T04:49:15.730Z,95.11
2022-12-12T04:50:14.047Z,95.66
2022-12-12T04:51:13.814Z,95.68
2022-12-12T04:52:13.882Z,95.53
2022-12-12T04:53:18.528Z,95.62
2022-12-12T04:54:49.075Z,95.27
2022-12-12T04:55:54.855Z,95.50
2022-12-12T04:56:58.582Z,94.98
2022-12-12T04:57:55.767Z,95.37
2022-12-12T04:58:52.423Z,95.84
2022-12-12T04:59:49.653Z,95.81
2022-12-12T05:00:51.917Z,95.55
2022-12-12T05:01:57.401Z,95.13
2022-12-12T05:03:19.924Z,95.77
2022-12-12T05:04:25.128Z,95.91
2022-12-12T05:05:28.204Z,96.03
2022-12-12T05:06:32.963Z,96.48
2022-12-12T05:07:37.859Z,97.22
2022-12-12T05:08:42.822Z,97.15
2022-12-12T05:09:39.996Z,96.91
2022-12-12T05:10:43.839Z,97.00
2022-12-12T05:11:42.123Z,96.92
2022-12-12T05:12:50.037Z,96.88
2022-12-12T05:13:46.631Z,96.96
2022-12-12T05:14:43.446Z,96.62
2022-12-12T05:15:44.799Z,96.62
2022-12-12T05:16:47.492Z,96.51
2022-12-12T05:17:48.714Z,96.06
2022-12-12T05:18:45.755Z,96.15
2022-12-12T05:19:42.323Z,96.00
2022-12-12T05:20:39.082Z,96.15
2022-12-12T05:21:35.710Z,96.30
2022-12-12T05:22:32.403Z,96.63
2022-12-12T05:23:34.369Z,96.60
2022-12-12T05:24:32.029Z,96.70
2022-12-12T05:25:28.661Z,96.91
2022-12-12T05:26:28.326Z,96.70
2022-12-12T05:27:24.930Z,96.52
2022-12-12T05:28:21.558Z,96.30
2022-12-12T05:29:18.177Z,96.33
2022-12-12T05:30:14.981Z,96.13
2022-12-12T05:31:11.650Z,96.20
2022-12-12T05:32:08.243Z,96.96
2022-12-12T05:33:04.849Z,96.10
2022-12-12T05:34:01.478Z,96.37
2022-12-12T05:34:58.045Z,96.11
2022-12-12T05:35:54.615Z,95.69
2022-12-12T05:36:51.282Z,95.40
2022-12-12T05:37:51.637Z,95.73
2022-12-12T05:38:48.705Z,95.42
2022-12-12T05:39:45.298Z,95.39
2022-12-12T05:40:41.932Z,95.00
2022-12-12T05:41:38.493Z,95.27
2022-12-12T05:42:35.255Z,95.54
2022-12-12T05:43:32.187Z,95.51
2022-12-12T05:44:28.804Z,95.28
2022-12-12T05:45:25.498Z,95.81
2022-12-12T05:46:22.133Z,95.60
2022-12-12T05:47:21.353Z,95.68
2022-12-12T05:48:23.963Z,96.06
2022-12-12T05:49:21.064Z,95.93
2022-12-12T05:50:17.810Z,96.12
2022-12-12T05:51:14.403Z,95.70
2022-12-12T05:52:11.088Z,95.85
2022-12-12T05:53:07.741Z,95.98
2022-12-12T05:54:04.468Z,96.10
2022-12-12T05:55:01.098Z,95.99
2022-12-12T05:55:57.820Z,96.23
2022-12-12T05:56:54.510Z,96.26
2022-12-12T05:57:51.059Z,96.29
2022-12-12T05:58:47.659Z,96.83
2022-12-12T05:59:44.631Z,96.90
2022-12-12T06:00:41.248Z,96.73
2022-12-12T06:01:37.851Z,96.72
2022-12-12T06:02:34.606Z,96.49
2022-12-12T06:03:32.481Z,96.23
2022-12-12T06:04:29.197Z,96.45
2022-12-12T06:05:25.936Z,96.29
2022-12-12T06:06:22.832Z,96.08
2022-12-12T06:07:19.476Z,96.14
2022-12-12T06:08:18.803Z,96.03
2022-12-12T06:09:17.974Z,95.94
2022-12-12T06:10:14.763Z,95.84
2022-12-12T06:11:12.691Z,95.88
2022-12-12T06:12:09.413Z,96.42
2022-12-12T06:13:05.980Z,95.88
2022-12-12T06:14:02.571Z,96.14
2022-12-12T06:14:59.154Z,95.69
2022-12-12T06:15:55.761Z,95.65
2022-12-12T06:16:52.874Z,95.25
2022-12-12T06:17:51.488Z,95.33
2022-12-12T06:18:55.597Z,95.82
2022-12-12T06:19:52.886Z,95.88
2022-12-12T06:20:49.491Z,95.46
2022-12-12T06:21:46.108Z,95.89
2022-12-12T06:22:42.700Z,95.45
2022-12-12T06:23:41.002Z,95.38
2022-12-12T06:24:37.630Z,95.59
2022-12-12T06:25:34.355Z,95.50
2022-12-12T06:26:31.075Z,95.94
2022-12-12T06:27:28.016Z,95.76
2022-12-12T06:28:24.628Z,95.28
2022-12-12T06:29:21.193Z,94.67
2022-12-12T06:30:17.861Z,95.38
2022-12-12T06:31:15.778Z,95.60
2022-12-12T06:32:12.398Z,95.27
2022-12-12T06:33:08.970Z,95.89
2022-12-12T06:34:05.538Z,95.88
2022-12-12T06:35:02.162Z,95.79
2022-12-12T06:36:26.836Z,96.59
2022-12-12T06:37:23.589Z,96.70
2022-12-12T06:38:20.644Z,96.81
2022-12-12T06:39:18.049Z,96.66
2022-12-12T06:40:15.678Z,96.44
2022-12-12T06:41:15.006Z,96.85
2022-12-12T06:42:11.571Z,96.68
2022-12-12T06:43:08.110Z,96.04
2022-12-12T06:44:04.929Z,96.34
2022-12-12T06:45:01.579Z,96.49
2022-12-12T06:46:03.647Z,96.29
2022-12-12T06:47:00.566Z,95.99
2022-12-12T06:47:57.167Z,96.12
2022-12-12T06:48:55.257Z,96.39
2022-12-12T06:49:51.901Z,96.15
2022-12-12T06:50:48.527Z,96.58
2022-12-12T06:51:45.286Z,96.45
2022-12-12T06:52:41.910Z,96.66
2022-12-12T06:53:38.598Z,96.70
2022-12-12T07:50:36.274Z,91.56
2022-12-12T07:51:32.910Z,91.82
2022-12-12T07:52:29.579Z,92.01
2022-12-12T07:53:26.194Z,92.15
2022-12-12T07:54:22.744Z,92.53
2022-12-12T07:55:19.344Z,92.38
2022-12-12T07:56:17.726Z,92.17
2022-12-12T07:57:14.343Z,91.82
2022-12-12T07:58:11.015Z,92.45
2022-12-12T07:59:07.857Z,92.74
2022-12-12T08:00:15.833Z,92.66
2022-12-12T08:01:18.633Z,91.67
2022-12-12T08:02:15.318Z,90.59
2022-12-12T08:03:12.007Z,90.31
2022-12-12T08:04:08.662Z,89.81
2022-12-12T08:07:16.122Z,90.64
2022-12-12T08:08:12.782Z,90.82
2022-12-12T08:09:09.409Z,90.76
2022-12-12T08:10:06.215Z,91.45
2022-12-12T08:11:11.427Z,91.81
2022-12-12T08:12:08.219Z,92.38
2022-12-12T08:13:05.022Z,91.48
2022-12-12T08:14:01.647Z,92.02
2022-12-12T08:14:58.377Z,92.14
2022-12-12T08:15:55.162Z,92.21
2022-12-12T08:16:52.617Z,92.62
2022-12-12T08:17:49.281Z,92.24
2022-12-12T08:18:46.164Z,91.96
2022-12-12T08:19:42.815Z,91.50
2022-12-12T08:20:41.892Z,92.23
2022-12-12T08:21:38.431Z,92.28
2022-12-12T08:22:35.150Z,92.54
2022-12-12T08:23:31.739Z,91.77
2022-12-12T08:24:31.238Z,92.15
2022-12-12T08:25:27.923Z,91.63
2022-12-12T08:26:26.150Z,91.73
2022-12-12T08:27:22.750Z,91.63
2022-12-12T08:28:19.368Z,91.15
2022-12-12T08:29:16.051Z,91.24
2022-12-12T08:30:12.927Z,91.14
2022-12-12T08:31:09.646Z,91.34
2022-12-12T08:32:06.332Z,91.21
2022-12-12T08:33:07.957Z,90.31
2022-12-12T08:34:05.646Z,89.59
2022-12-12T08:35:02.379Z,89.37
2022-12-12T08:35:58.958Z,89.45
2022-12-12T08:36:55.536Z,88.62
2022-12-12T08:37:52.202Z,89.00
2022-12-12T08:38:49.792Z,89.37
2022-12-12T08:39:48.405Z,90.15
2022-12-12T08:40:48.131Z,89.70
2022-12-12T08:41:50.190Z,90.62
2022-12-12T08:42:46.785Z,90.80
2022-12-12T08:43:44.200Z,91.05
2022-12-12T08:44:41.110Z,90.91
2022-12-12T08:45:38.894Z,90.79
2022-12-12T08:46:38.374Z,90.65
2022-12-12T08:47:35.083Z,90.92
2022-12-12T08:48:31.832Z,91.10
2022-12-12T08:49:28.375Z,91.38
2022-12-12T08:50:24.992Z,91.13
2022-12-12T08:51:22.046Z,91.37
2022-12-12T08:52:18.818Z,91.82
2022-12-12T08:53:15.442Z,91.58
2022-12-12T08:54:12.990Z,91.71
2022-12-12T08:55:09.657Z,91.56
2022-12-12T08:56:06.769Z,92.18
2022-12-12T08:57:03.471Z,92.10
2022-12-12T08:58:00.102Z,92.17
2022-12-12T08:58:56.679Z,92.40
2022-12-12T08:59:53.202Z,91.85
2022-12-12T09:00:49.976Z,92.35
2022-12-12T09:01:46.652Z,91.86
2022-12-12T09:02:44.223Z,91.25
2022-12-12T09:03:40.920Z,91.25
2022-12-12T09:04:38.095Z,91.47
2022-12-12T09:05:35.637Z,91.12
2022-12-12T09:06:32.301Z,91.23
2022-12-12T09:07:28.937Z,91.37
2022-12-12T09:08:25.657Z,92.19
2022-12-12T09:09:22.344Z,92.19
2022-12-12T09:10:18.934Z,91.97
2022-12-12T09:11:16.271Z,91.45
2022-12-12T09:12:12.925Z,91.64
2022-12-12T09:13:11.405Z,91.83
2022-12-12T09:14:07.988Z,91.40
2022-12-12T09:15:05.090Z,91.84
2022-12-12T09:16:01.956Z,92.46
2022-12-12T09:16:58.576Z,92.56
2022-12-12T09:17:55.268Z,92.45
2022-12-12T09:18:52.141Z,91.91
2022-12-12T09:19:48.710Z,91.85
2022-12-12T09:20:56.091Z,91.87
2022-12-12T09:21:52.673Z,91.57
2022-12-12T09:22:49.343Z,92.10
2022-12-12T09:23:46.254Z,92.17
2022-12-12T09:24:42.968Z,91.71
2022-12-12T09:25:42.600Z,91.64
2022-12-12T09:26:39.384Z,91.70
2022-12-12T09:27:36.439Z,91.94
2022-12-12T09:28:33.314Z,91.46
2022-12-12T09:29:30.077Z,91.36
2022-12-12T09:30:26.726Z,91.68
2022-12-12T09:31:23.501Z,92.13
2022-12-12T09:32:24.577Z,91.62
2022-12-12T09:33:21.598Z,91.72
2022-12-12T09:34:18.208Z,91.14
2022-12-12T09:35:15.231Z,91.42
2022-12-12T09:36:13.824Z,91.49
2022-12-12T09:37:10.558Z,91.13
2022-12-12T09:38:14.006Z,91.15
2022-12-12T09:39:11.343Z,91.12
2022-12-12T09:40:09.426Z,91.20
2022-12-12T09:41:09.053Z,91.85
2022-12-12T09:42:11.323Z,92.15
2022-12-12T09:43:15.829Z,92.02
2022-12-12T09:44:18.682Z,92.05
2022-12-12T09:45:16.001Z,91.45
2022-12-12T09:47:00.507Z,91.76
2022-12-12T09:48:00.813Z,91.11
2022-12-12T09:49:07.500Z,91.46
2022-12-12T09:50:14.655Z,92.29
2022-12-12T09:51:13.052Z,92.42
2022-12-12T09:52:15.744Z,92.81
2022-12-12T09:53:16.330Z,93.44
2022-12-12T09:54:16.690Z,94.04
2022-12-12T09:55:20.460Z,93.92
2022-12-12T09:56:35.191Z,95.07
2022-12-12T09:57:44.623Z,94.59
2022-12-12T09:58:53.866Z,94.67
2022-12-12T10:00:05.594Z,94.08
2022-12-12T10:01:08.006Z,93.61
2022-12-12T10:02:23.228Z,93.66
2022-12-12T10:03:37.830Z,92.86
2022-12-12T10:04:53.830Z,92.73
2022-12-12T10:06:28.589Z,92.65
2022-12-12T10:07:43.546Z,93.43
2022-12-12T10:08:42.943Z,93.30
2022-12-12T10:10:01.033Z,92.34
2022-12-12T10:11:27.346Z,92.58
2022-12-12T10:12:25.894Z,92.50
2022-12-12T10:13:26.849Z,92.44
2022-12-12T10:14:38.788Z,92.61
2022-12-12T10:15:39.340Z,92.41
2022-12-12T10:16:38.606Z,92.71
2022-12-12T10:17:43.331Z,92.81
2022-12-12T10:18:43.458Z,92.25
2022-12-12T10:19:49.850Z,91.45
2022-12-12T10:20:52.177Z,91.78
2022-12-12T10:21:51.764Z,91.60
2022-12-12T10:23:17.421Z,92.06
2022-12-12T10:24:33.737Z,92.14
2022-12-12T10:25:49.020Z,92.34
2022-12-12T10:26:45.636Z,92.68
2022-12-12T10:27:42.257Z,92.60
2022-12-12T10:28:39.142Z,92.22
2022-12-12T10:29:41.200Z,92.38
2022-12-12T10:31:08.045Z,92.46
2022-12-12T10:32:27.682Z,92.60
2022-12-12T10:33:51.335Z,91.54
2022-12-12T10:35:16.937Z,90.68
2022-12-12T10:36:34.379Z,90.39
2022-12-12T10:37:54.220Z,91.30
2022-12-12T10:39:21.551Z,90.79
2022-12-12T10:40:37.665Z,90.90
2022-12-12T10:41:48.872Z,91.61
2022-12-12T10:43:02.505Z,91.43
2022-12-12T10:44:20.001Z,90.92
2022-12-12T10:45:40.820Z,91.14
2022-12-12T10:46:50.029Z,91.20
2022-12-12T10:47:47.022Z,91.02
2022-12-12T10:48:45.707Z,90.39
2022-12-12T10:49:42.576Z,91.04
2022-12-12T10:50:44.616Z,92.27
2022-12-12T10:51:43.550Z,92.90
2022-12-12T10:52:40.403Z,93.79
2022-12-12T10:53:37.203Z,93.64
2022-12-12T10:54:44.230Z,93.01
2022-12-12T10:56:00.578Z,93.29
2022-12-12T10:57:18.011Z,92.58
2022-12-12T10:58:19.506Z,91.90
2022-12-12T10:59:22.209Z,91.62
2022-12-12T11:00:29.434Z,91.97
2022-12-12T11:02:08.561Z,91.52
2022-12-12T11:02:56.850Z,91.27
2022-12-12T11:03:59.112Z,91.07
2022-12-12T11:05:07.152Z,91.29
2022-12-12T11:06:08.014Z,91.10
2022-12-12T11:07:04.842Z,91.52
2022-12-12T11:08:07.476Z,91.70
2022-12-12T11:09:15.707Z,91.58
2022-12-12T11:10:26.865Z,91.71
2022-12-12T11:11:28.586Z,91.56
2022-12-12T11:12:35.103Z,91.26
2022-12-12T11:13:39.459Z,91.14
2022-12-12T11:14:37.694Z,90.85
2022-12-12T11:15:46.236Z,91.01
2022-12-12T11:16:44.720Z,91.33
2022-12-12T11:17:41.761Z,91.46
2022-12-12T11:18:38.370Z,91.62
2022-12-12T11:19:39.215Z,91.98
2022-12-12T11:20:44.361Z,91.51
2022-12-12T11:21:41.346Z,91.36
2022-12-12T11:22:39.712Z,91.08
2022-12-12T11:23:40.759Z,91.52
2022-12-12T11:24:43.315Z,91.49
2022-12-12T11:25:39.897Z,91.59
2022-12-12T11:26:49.246Z,91.47
2022-12-12T11:27:46.326Z,91.33
2022-12-12T11:28:45.625Z,90.54
2022-12-12T11:29:47.964Z,89.66
2022-12-12T11:30:44.857Z,88.83
2022-12-12T11:31:43.914Z,89.43
2022-12-12T11:32:47.486Z,90.15
2022-12-12T11:33:52.778Z,90.65
2022-12-12T11:34:58.257Z,89.76
2022-12-12T11:35:56.191Z,90.44
2022-12-12T11:36:53.699Z,90.56
2022-12-12T11:37:56.102Z,90.66
2022-12-12T11:38:56.114Z,90.61
2022-12-12T11:39:54.256Z,89.94
2022-12-12T11:41:03.795Z,89.02
2022-12-12T11:42:16.452Z,88.43
2022-12-12T11:43:29.443Z,88.14
2022-12-12T11:44:30.097Z,88.81
2022-12-12T11:45:26.790Z,89.22
2022-12-12T11:46:33.733Z,88.77
2022-12-12T11:47:38.757Z,88.22
2022-12-12T11:48:41.144Z,88.46
2022-12-12T11:49:45.891Z,88.73
2022-12-12T11:50:46.471Z,89.35
2022-12-12T11:51:44.463Z,90.47
2022-12-12T11:52:41.067Z,90.95
2022-12-12T11:53:45.128Z,91.51
2022-12-12T11:54:41.732Z,91.78
2022-12-12T11:56:04.822Z,92.35
2022-12-12T11:57:06.691Z,91.82
2022-12-12T11:58:26.581Z,91.92
2022-12-12T11:59:35.115Z,92.55
2022-12-12T12:00:42.431Z,92.82
2022-12-12T12:02:11.283Z,92.09
2022-12-12T12:03:35.624Z,92.04
2022-12-12T12:05:11.843Z,92.35
2022-12-12T12:06:34.586Z,92.71
2022-12-12T12:08:03.339Z,92.60
2022-12-12T12:09:22.425Z,91.85
2022-12-12T12:10:36.254Z,91.42
2022-12-12T12:11:59.115Z,91.63
2022-12-12T12:13:13.879Z,91.69
2022-12-12T12:14:42.777Z,91.68
2022-12-12T12:16:07.616Z,91.98
2022-12-12T12:17:07.052Z,92.32
2022-12-12T12:18:19.805Z,92.72
2022-12-12T12:19:26.039Z,92.71
2022-12-12T12:20:49.806Z,91.91
2022-12-12T12:22:23.686Z,91.99
2022-12-12T12:23:42.470Z,91.41
2022-12-12T12:24:40.786Z,91.73
2022-12-12T12:25:51.861Z,91.78
2022-12-12T12:27:25.273Z,91.69
2022-12-12T12:28:34.524Z,91.96
2022-12-12T12:29:52.046Z,91.90
2022-12-12T12:31:06.371Z,91.50
2022-12-12T12:32:12.666Z,90.90
2022-12-12T12:33:30.939Z,90.79
2022-12-12T12:34:33.719Z,91.30
2022-12-12T12:35:50.316Z,91.39
2022-12-12T12:37:14.120Z,91.06
2022-12-12T12:38:16.893Z,90.75
2022-12-12T12:39:34.922Z,90.87
2022-12-12T12:40:48.648Z,91.92
2022-12-12T12:41:45.273Z,92.21
2022-12-12T12:43:14.010Z,92.08
2022-12-12T12:44:30.521Z,91.27
2022-12-12T12:45:45.752Z,90.97
2022-12-12T12:47:00.985Z,91.25
2022-12-12T12:48:19.466Z,91.61
2022-12-12T12:49:23.649Z,91.42
2022-12-12T12:50:28.305Z,91.55
2022-12-12T12:51:31.762Z,91.51
2022-12-12T12:52:36.604Z,91.46
2022-12-12T12:53:42.743Z,91.26
2022-12-12T12:54:41.245Z,91.99
2022-12-12T12:55:47.747Z,92.15
2022-12-12T12:56:50.626Z,91.40
2022-12-12T12:57:50.346Z,91.75
2022-12-12T12:58:49.590Z,91.87
2022-12-12T12:59:53.719Z,92.29
2022-12-12T13:00:59.977Z,92.19
2022-12-12T13:02:01.617Z,92.14
2022-12-12T13:03:07.491Z,91.75
2022-12-12T13:04:22.678Z,91.79
2022-12-12T13:05:22.603Z,91.66
2022-12-12T13:06:25.754Z,91.31
2022-12-12T13:07:28.938Z,91.51
2022-12-12T13:08:39.973Z,91.69
2022-12-12T13:09:59.768Z,91.87
2022-12-12T13:11:07.813Z,92.08
2022-12-12T13:12:33.420Z,91.61
2022-12-12T13:13:32.815Z,92.05
2022-12-12T13:14:49.465Z,92.83
2022-12-12T13:15:51.679Z,92.65
2022-12-12T13:16:50.985Z,92.94
2022-12-12T13:18:01.617Z,93.25
2022-12-12T13:19:24.188Z,92.86
2022-12-12T13:20:25.868Z,92.51
2022-12-12T13:21:35.547Z,91.31
2022-12-12T13:22:53.696Z,91.43
2022-12-12T13:24:03.181Z,91.35
2022-12-12T13:25:19.012Z,91.68
2022-12-12T13:26:21.590Z,91.60
2022-12-12T13:27:26.387Z,92.39
2022-12-12T13:28:42.494Z,92.37
2022-12-12T13:29:47.584Z,92.76
2022-12-12T13:30:53.157Z,92.70
2022-12-12T13:32:02.995Z,92.58
2022-12-12T13:33:14.322Z,91.14
2022-12-12T13:34:16.967Z,90.29
2022-12-12T13:35:18.127Z,90.03
2022-12-12T13:36:30.282Z,90.13
2022-12-12T13:37:29.105Z,90.96
2022-12-12T13:38:30.223Z,91.70
2022-12-12T13:39:30.515Z,92.22
2022-12-12T13:40:32.439Z,92.03
2022-12-12T13:42:03.016Z,92.01
2022-12-12T13:43:10.211Z,91.59
2022-12-12T13:44:33.165Z,91.09
2022-12-12T13:45:32.543Z,91.42
2022-12-12T13:46:37.972Z,91.96
2022-12-12T13:47:34.626Z,92.23
2022-12-12T13:48:46.447Z,92.27
2022-12-12T13:50:22.628Z,92.63
2022-12-12T13:51:28.071Z,92.83
2022-12-12T13:52:28.897Z,92.83
2022-12-12T13:53:25.490Z,93.02
2022-12-12T13:54:22.388Z,92.69
2022-12-12T13:55:22.682Z,92.34
2022-12-12T13:56:32.264Z,91.94
2022-12-12T13:57:31.527Z,92.61
2022-12-12T13:58:35.006Z,92.82
2022-12-12T13:59:31.928Z,93.51
2022-12-12T14:00:32.400Z,93.96
2022-12-12T14:01:29.006Z,93.46
2022-12-12T14:02:30.972Z,93.44
2022-12-12T14:03:30.887Z,93.40
2022-12-12T14:04:36.537Z,93.00
2022-12-12T14:05:48.813Z,93.41
2022-12-12T14:06:45.524Z,93.39
2022-12-12T14:08:01.659Z,94.21
2022-12-12T14:08:58.950Z,93.89
2022-12-12T14:09:57.518Z,93.87
2022-12-12T14:11:08.291Z,94.44
2022-12-12T14:12:31.368Z,94.76
2022-12-12T14:13:36.403Z,94.82
2022-12-12T14:14:36.586Z,94.23
2022-12-12T14:15:33.694Z,95.00
2022-12-12T14:16:30.850Z,95.03
2022-12-12T14:17:30.401Z,95.07
2022-12-12T14:18:30.570Z,94.85
2022-12-12T14:19:35.662Z,95.09
2022-12-12T14:20:43.784Z,94.74
2022-12-12T14:21:45.309Z,94.94
2022-12-12T14:22:44.891Z,94.53
2022-12-12T14:23:50.298Z,94.18
2022-12-12T14:25:19.118Z,94.06
2022-12-12T14:26:27.810Z,93.87
2022-12-12T14:27:45.934Z,94.88
2022-12-12T14:28:42.553Z,94.71
2022-12-12T14:29:41.962Z,95.28
2022-12-12T14:30:58.804Z,95.04
2022-12-12T14:32:04.658Z,95.05
2022-12-12T14:33:26.604Z,94.97
2022-12-12T14:34:38.327Z,94.41
2022-12-12T14:35:44.476Z,94.86
2022-12-12T14:36:49.667Z,95.04